KCDC/CDC METAR and TAF weather

Enter ICAO airport designator
Station Type Date Time Source
KCDC METAR 2022/08/16 19:19 UTC NOAA

KCDC 161919Z AUTO 14008KT 10SM VCTS -RA OVC095 21/17 A3018 RMK AO2 LTG DSNT SE-SW P0000 T02060167


Station Type Date Time Source
KCDC Decoded METAR 2022/08/16 19:19 UTC NOAA

CEDAR CITY MUN AIRPORT, UT, United States (KCDC) 37-42N 113-06W 1714M
Aug 16, 2022 - 03:19 PM EDT / 2022.08.16 1919 UTC
Wind: from the SE (140 degrees) at 9 MPH (8 KT):0
Visibility: 10 mile(s):0
Sky conditions: overcast
Weather: thunder in the vicinity; light rain; Lightning observed
Precipitation last hour: A trace
Temperature: 69.1 F (20.6 C)
Dew Point: 62.1 F (16.7 C)
Relative Humidity: 78%
Pressure (altimeter): 30.18 in. Hg (1022 hPa)
ob: KCDC 161919Z AUTO 14008KT 10SM VCTS -RA OVC095 21/17 A3018 RMK AO2 LTG DSNT SE-SW P0000 T02060167
cycle: 19

Station Type Date Time Source
KCDC TAF 2022/08/16 19:15 UTC NOAA

TAF
AMD KCDC 161911Z 1619/1718 14008KT P6SM VCTS FEW080CB BKN100
FM170000 10008KT P6SM VCSH FEW060 BKN100
FM170400 15005KT P6SM SCT080 BKN100

Example: see airport list